sensor_id;sensor_type;location;lat;lon;timestamp;pressure;altitude;pressure_sealevel;temperature;humidity
61814;BME280;57055;-35.296;149.168;2023-03-21T00:00:01;96398.00;;;16.10;50.43
61814;BME280;57055;-35.296;149.168;2023-03-21T00:02:30;96393.57;;;16.04;50.80
61814;BME280;57055;-35.296;149.168;2023-03-21T00:04:59;96388.39;;;15.84;51.41
61814;BME280;57055;-35.296;149.168;2023-03-21T00:07:27;96384.67;;;15.99;50.97
61814;BME280;57055;-35.296;149.168;2023-03-21T00:09:56;96374.61;;;16.11;51.01
61814;BME280;57055;-35.296;149.168;2023-03-21T00:12:25;96376.30;;;16.19;51.20
61814;BME280;57055;-35.296;149.168;2023-03-21T00:14:54;96374.70;;;16.29;50.84
61814;BME280;57055;-35.296;149.168;2023-03-21T00:17:24;96373.07;;;16.31;50.64
61814;BME280;57055;-35.296;149.168;2023-03-21T00:19:54;96365.55;;;16.17;51.13
61814;BME280;57055;-35.296;149.168;2023-03-21T00:22:23;96360.65;;;16.18;50.43
61814;BME280;57055;-35.296;149.168;2023-03-21T00:24:53;96361.81;;;16.36;50.64
61814;BME280;57055;-35.296;149.168;2023-03-21T00:27:22;96357.94;;;16.20;50.42
61814;BME280;57055;-35.296;149.168;2023-03-21T00:29:52;96355.88;;;16.69;50.12
61814;BME280;57055;-35.296;149.168;2023-03-21T00:32:21;96355.22;;;16.48;49.84
61814;BME280;57055;-35.296;149.168;2023-03-21T00:34:50;96353.71;;;16.55;50.35
61814;BME280;57055;-35.296;149.168;2023-03-21T00:37:20;96350.69;;;16.76;49.49
61814;BME280;57055;-35.296;149.168;2023-03-21T00:39:48;96344.45;;;16.48;49.86
61814;BME280;57055;-35.296;149.168;2023-03-21T00:42:18;96344.22;;;16.63;49.46
61814;BME280;57055;-35.296;149.168;2023-03-21T00:44:47;96341.73;;;16.64;49.50
61814;BME280;57055;-35.296;149.168;2023-03-21T00:47:16;96341.91;;;16.55;49.43
61814;BME280;57055;-35.296;149.168;2023-03-21T00:49:44;96330.83;;;16.57;49.20
61814;BME280;57055;-35.296;149.168;2023-03-21T00:52:13;96326.76;;;16.60;49.44
61814;BME280;57055;-35.296;149.168;2023-03-21T00:54:42;96329.10;;;16.87;49.45
61814;BME280;57055;-35.296;149.168;2023-03-21T00:57:11;96327.14;;;16.58;49.43
61814;BME280;57055;-35.296;149.168;2023-03-21T00:59:39;96325.56;;;16.76;48.94
61814;BME280;57055;-35.296;149.168;2023-03-21T01:02:09;96319.99;;;16.62;49.22
61814;BME280;57055;-35.296;149.168;2023-03-21T01:04:38;96323.29;;;16.60;49.63
61814;BME280;57055;-35.296;149.168;2023-03-21T01:07:08;96320.06;;;16.32;49.91
61814;BME280;57055;-35.296;149.168;2023-03-21T01:09:38;96315.66;;;16.44;50.01
61814;BME280;57055;-35.296;149.168;2023-03-21T01:12:07;96317.00;;;16.51;50.23
61814;BME280;57055;-35.296;149.168;2023-03-21T01:14:35;96312.72;;;16.57;50.26
61814;BME280;57055;-35.296;149.168;2023-03-21T01:17:04;96311.46;;;16.34;49.77
61814;BME280;57055;-35.296;149.168;2023-03-21T01:19:33;96317.53;;;16.26;50.27
61814;BME280;57055;-35.296;149.168;2023-03-21T01:22:02;96314.35;;;16.55;50.27
61814;BME280;57055;-35.296;149.168;2023-03-21T01:24:31;96302.64;;;16.46;50.09
61814;BME280;57055;-35.296;149.168;2023-03-21T01:27:02;96302.04;;;16.78;50.35
61814;BME280;57055;-35.296;149.168;2023-03-21T01:29:31;96304.40;;;16.68;50.31
61814;BME280;57055;-35.296;149.168;2023-03-21T01:31:59;96300.21;;;16.74;49.89
61814;BME280;57055;-35.296;149.168;2023-03-21T01:34:28;96298.13;;;16.70;49.69
61814;BME280;57055;-35.296;149.168;2023-03-21T01:36:57;96297.96;;;16.65;49.73
61814;BME280;57055;-35.296;149.168;2023-03-21T01:39:25;96294.43;;;16.60;49.44
61814;BME280;57055;-35.296;149.168;2023-03-21T01:41:54;96292.82;;;16.35;49.05
61814;BME280;57055;-35.296;149.168;2023-03-21T01:44:23;96294.54;;;16.52;49.90
61814;BME280;57055;-35.296;149.168;2023-03-21T01:46:52;96281.85;;;16.59;49.06
61814;BME280;57055;-35.296;149.168;2023-03-21T01:49:24;96277.27;;;16.57;49.50
61814;BME280;57055;-35.296;149.168;2023-03-21T01:51:58;96271.85;;;16.74;49.41
61814;BME280;57055;-35.296;149.168;2023-03-21T01:54:31;96268.63;;;16.81;49.75
61814;BME280;57055;-35.296;149.168;2023-03-21T01:57:06;96264.47;;;16.63;49.16
61814;BME280;57055;-35.296;149.168;2023-03-21T01:59:39;96260.05;;;16.84;49.62
61814;BME280;57055;-35.296;149.168;2023-03-21T02:02:14;96264.51;;;17.08;49.77
61814;BME280;57055;-35.296;149.168;2023-03-21T02:04:44;96265.69;;;16.77;49.99
61814;BME280;57055;-35.296;149.168;2023-03-21T02:07:15;96268.19;;;16.74;49.56
61814;BME280;57055;-35.296;149.168;2023-03-21T02:09:47;96265.45;;;16.75;49.59
61814;BME280;57055;-35.296;149.168;2023-03-21T02:12:18;96262.41;;;16.77;49.83
61814;BME280;57055;-35.296;149.168;2023-03-21T02:14:49;96259.84;;;16.82;49.85
61814;BME280;57055;-35.296;149.168;2023-03-21T02:17:23;96252.09;;;16.60;49.66
61814;BME280;57055;-35.296;149.168;2023-03-21T02:20:17;96244.01;;;16.58;49.33
61814;BME280;57055;-35.296;149.168;2023-03-21T02:23:08;96244.36;;;16.75;49.67
61814;BME280;57055;-35.296;149.168;2023-03-21T02:27:09;96242.58;;;16.49;50.07
61814;BME280;57055;-35.296;149.168;2023-03-21T02:30:09;96239.40;;;16.82;50.01
61814;BME280;57055;-35.296;149.168;2023-03-21T02:33:01;96234.77;;;16.60;49.86
61814;BME280;57055;-35.296;149.168;2023-03-21T02:35:47;96221.09;;;16.86;49.68
61814;BME280;57055;-35.296;149.168;2023-03-21T02:38:22;96206.95;;;16.97;49.69
61814;BME280;57055;-35.296;149.168;2023-03-21T02:41:02;96201.56;;;17.04;49.98
61814;BME280;57055;-35.296;149.168;2023-03-21T02:43:38;96193.73;;;16.88;49.39
61814;BME280;57055;-35.296;149.168;2023-03-21T02:46:14;96191.50;;;17.14;49.44
61814;BME280;57055;-35.296;149.168;2023-03-21T02:48:48;96191.79;;;17.06;49.28
61814;BME280;57055;-35.296;149.168;2023-03-21T02:51:22;96194.40;;;17.09;49.26
61814;BME280;57055;-35.296;149.168;2023-03-21T02:54:08;96195.59;;;17.13;48.91
61814;BME280;57055;-35.296;149.168;2023-03-21T02:56:39;96201.42;;;16.89;48.98
61814;BME280;57055;-35.296;149.168;2023-03-21T02:59:09;96207.23;;;16.88;49.19
61814;BME280;57055;-35.296;149.168;2023-03-21T03:01:38;96203.02;;;16.88;48.60
61814;BME280;57055;-35.296;149.168;2023-03-21T03:04:19;96194.65;;;16.93;49.32
61814;BME280;57055;-35.296;149.168;2023-03-21T03:07:10;96188.29;;;16.77;49.36
61814;BME280;57055;-35.296;149.168;2023-03-21T03:09:53;96179.88;;;17.18;49.61
61814;BME280;57055;-35.296;149.168;2023-03-21T03:12:31;96184.61;;;16.58;49.86
61814;BME280;57055;-35.296;149.168;2023-03-21T03:15:09;96186.75;;;16.79;49.94
61814;BME280;57055;-35.296;149.168;2023-03-21T03:17:49;96195.39;;;17.06;49.77
61814;BME280;57055;-35.296;149.168;2023-03-21T03:20:26;96199.74;;;16.77;50.05
61814;BME280;57055;-35.296;149.168;2023-03-21T03:23:06;96196.08;;;16.48;50.15
61814;BME280;57055;-35.296;149.168;2023-03-21T03:25:41;96193.64;;;16.58;50.46
61814;BME280;57055;-35.296;149.168;2023-03-21T03:28:13;96194.20;;;16.58;50.54
61814;BME280;57055;-35.296;149.168;2023-03-21T03:30:44;96186.23;;;16.32;50.61
61814;BME280;57055;-35.296;149.168;2023-03-21T03:33:14;96176.15;;;16.74;50.38
61814;BME280;57055;-35.296;149.168;2023-03-21T03:35:46;96176.12;;;16.22;50.55
61814;BME280;57055;-35.296;149.168;2023-03-21T03:38:15;96184.72;;;16.41;50.50
61814;BME280;57055;-35.296;149.168;2023-03-21T03:40:48;96189.86;;;16.49;50.14
61814;BME280;57055;-35.296;149.168;2023-03-21T03:43:25;96178.89;;;16.28;50.12
61814;BME280;57055;-35.296;149.168;2023-03-21T03:46:02;96178.91;;;16.48;50.05
61814;BME280;57055;-35.296;149.168;2023-03-21T03:48:38;96169.36;;;16.33;49.89
61814;BME280;57055;-35.296;149.168;2023-03-21T03:51:15;96166.48;;;16.30;50.27
61814;BME280;57055;-35.296;149.168;2023-03-21T03:53:48;96172.29;;;16.20;50.55
61814;BME280;57055;-35.296;149.168;2023-03-21T03:56:20;96171.93;;;16.25;50.81
61814;BME280;57055;-35.296;149.168;2023-03-21T03:58:49;96167.21;;;16.31;50.74
61814;BME280;57055;-35.296;149.168;2023-03-21T04:01:19;96171.62;;;16.24;50.78
61814;BME280;57055;-35.296;149.168;2023-03-21T04:03:48;96167.23;;;16.22;50.85
61814;BME280;57055;-35.296;149.168;2023-03-21T04:06:18;96161.69;;;16.46;50.86
61814;BME280;57055;-35.296;149.168;2023-03-21T04:08:48;96153.95;;;16.04;50.64
61814;BME280;57055;-35.296;149.168;2023-03-21T04:11:16;96145.33;;;16.27;50.65
61814;BME280;57055;-35.296;149.168;2023-03-21T04:13:45;96133.42;;;16.33;50.60
61814;BME280;57055;-35.296;149.168;2023-03-21T04:16:14;96132.27;;;16.37;50.45
61814;BME280;57055;-35.296;149.168;2023-03-21T04:18:43;96137.52;;;16.34;50.35
61814;BME280;57055;-35.296;149.168;2023-03-21T04:21:12;96145.73;;;16.29;50.20
61814;BME280;57055;-35.296;149.168;2023-03-21T04:23:41;96159.51;;;16.43;50.14
61814;BME280;57055;-35.296;149.168;2023-03-21T04:26:11;96163.29;;;16.77;50.03
61814;BME280;57055;-35.296;149.168;2023-03-21T04:28:40;96159.74;;;16.59;49.77
61814;BME280;57055;-35.296;149.168;2023-03-21T04:31:09;96158.67;;;16.63;49.89
61814;BME280;57055;-35.296;149.168;2023-03-21T04:33:38;96165.39;;;16.40;50.01
61814;BME280;57055;-35.296;149.168;2023-03-21T04:36:08;96157.13;;;16.34;50.38
61814;BME280;57055;-35.296;149.168;2023-03-21T04:38:37;96152.41;;;16.27;50.61
61814;BME280;57055;-35.296;149.168;2023-03-21T04:41:06;96149.24;;;16.35;50.76
61814;BME280;57055;-35.296;149.168;2023-03-21T04:43:35;96146.88;;;16.36;50.96
61814;BME280;57055;-35.296;149.168;2023-03-21T04:46:04;96149.11;;;16.42;50.65
61814;BME280;57055;-35.296;149.168;2023-03-21T04:48:33;96141.34;;;16.56;50.75
61814;BME280;57055;-35.296;149.168;2023-03-21T04:51:02;96131.54;;;16.22;50.79
61814;BME280;57055;-35.296;149.168;2023-03-21T04:53:31;96127.14;;;16.20;51.11
61814;BME280;57055;-35.296;149.168;2023-03-21T04:56:00;96125.02;;;16.23;51.23
61814;BME280;57055;-35.296;149.168;2023-03-21T04:58:28;96119.58;;;16.26;51.22
61814;BME280;57055;-35.296;149.168;2023-03-21T05:00:57;96110.84;;;16.44;51.15
61814;BME280;57055;-35.296;149.168;2023-03-21T05:03:25;96105.86;;;16.03;50.90
61814;BME280;57055;-35.296;149.168;2023-03-21T05:05:54;96100.29;;;16.29;50.78
61814;BME280;57055;-35.296;149.168;2023-03-21T05:08:23;96094.00;;;16.57;50.87
61814;BME280;57055;-35.296;149.168;2023-03-21T05:10:52;96094.81;;;16.66;50.87
61814;BME280;57055;-35.296;149.168;2023-03-21T05:13:21;96098.84;;;16.20;50.97
61814;BME280;57055;-35.296;149.168;2023-03-21T05:15:50;96102.04;;;16.47;50.48
61814;BME280;57055;-35.296;149.168;2023-03-21T05:18:18;96102.28;;;16.40;50.80
61814;BME280;57055;-35.296;149.168;2023-03-21T05:20:48;96102.08;;;16.66;50.96
61814;BME280;57055;-35.296;149.168;2023-03-21T05:23:17;96099.55;;;16.40;51.00
61814;BME280;57055;-35.296;149.168;2023-03-21T05:25:45;96104.36;;;16.15;51.12
61814;BME280;57055;-35.296;149.168;2023-03-21T05:28:15;96105.34;;;16.32;51.46
61814;BME280;57055;-35.296;149.168;2023-03-21T05:30:44;96111.13;;;16.39;51.46
61814;BME280;57055;-35.296;149.168;2023-03-21T05:33:13;96111.17;;;16.35;51.55
61814;BME280;57055;-35.296;149.168;2023-03-21T05:35:42;96116.07;;;16.38;51.43
61814;BME280;57055;-35.296;149.168;2023-03-21T05:38:11;96118.43;;;16.40;51.47
61814;BME280;57055;-35.296;149.168;2023-03-21T05:40:39;96114.68;;;16.32;51.38
61814;BME280;57055;-35.296;149.168;2023-03-21T05:43:08;96111.12;;;16.27;51.39
61814;BME280;57055;-35.296;149.168;2023-03-21T05:45:36;96109.00;;;16.27;51.53
61814;BME280;57055;-35.296;149.168;2023-03-21T05:48:05;96106.44;;;16.26;51.80
61814;BME280;57055;-35.296;149.168;2023-03-21T05:50:35;96099.37;;;16.34;51.72
61814;BME280;57055;-35.296;149.168;2023-03-21T05:53:04;96088.04;;;16.49;51.90
61814;BME280;57055;-35.296;149.168;2023-03-21T05:55:32;96078.11;;;16.36;51.95
61814;BME280;57055;-35.296;149.168;2023-03-21T05:58:01;96075.09;;;16.40;52.16
61814;BME280;57055;-35.296;149.168;2023-03-21T06:00:30;96074.29;;;16.09;52.25
61814;BME280;57055;-35.296;149.168;2023-03-21T06:02:59;96065.69;;;16.36;51.93
61814;BME280;57055;-35.296;149.168;2023-03-21T06:05:28;96054.70;;;16.30;52.54
61814;BME280;57055;-35.296;149.168;2023-03-21T06:07:58;96038.60;;;16.04;53.32
61814;BME280;57055;-35.296;149.168;2023-03-21T06:10:27;96047.39;;;16.32;53.89
61814;BME280;57055;-35.296;149.168;2023-03-21T06:12:55;96053.37;;;16.06;53.72
61814;BME280;57055;-35.296;149.168;2023-03-21T06:15:24;96064.13;;;16.40;54.47
61814;BME280;57055;-35.296;149.168;2023-03-21T06:17:52;96078.71;;;16.42;53.43
61814;BME280;57055;-35.296;149.168;2023-03-21T06:20:21;96084.38;;;16.09;53.66
61814;BME280;57055;-35.296;149.168;2023-03-21T06:22:50;96083.90;;;16.08;53.41
61814;BME280;57055;-35.296;149.168;2023-03-21T06:25:19;96083.85;;;16.26;53.97
61814;BME280;57055;-35.296;149.168;2023-03-21T06:27:49;96076.38;;;16.00;54.08
61814;BME280;57055;-35.296;149.168;2023-03-21T06:30:18;96077.50;;;16.23;53.86
61814;BME280;57055;-35.296;149.168;2023-03-21T06:32:47;96082.19;;;16.20;53.68
61814;BME280;57055;-35.296;149.168;2023-03-21T06:35:16;96092.09;;;15.96;53.67
61814;BME280;57055;-35.296;149.168;2023-03-21T06:37:44;96091.09;;;16.14;54.11
61814;BME280;57055;-35.296;149.168;2023-03-21T06:40:13;96091.65;;;16.03;54.89
61814;BME280;57055;-35.296;149.168;2023-03-21T06:42:43;96092.04;;;16.07;55.36
61814;BME280;57055;-35.296;149.168;2023-03-21T06:45:11;96090.21;;;16.03;55.93
61814;BME280;57055;-35.296;149.168;2023-03-21T06:47:41;96090.77;;;15.91;56.56
61814;BME280;57055;-35.296;149.168;2023-03-21T06:50:11;96084.54;;;15.90;57.09
61814;BME280;57055;-35.296;149.168;2023-03-21T06:52:39;96084.64;;;15.90;56.98
61814;BME280;57055;-35.296;149.168;2023-03-21T06:55:09;96074.63;;;15.79;58.17
61814;BME280;57055;-35.296;149.168;2023-03-21T06:57:38;96058.89;;;15.68;58.57
61814;BME280;57055;-35.296;149.168;2023-03-21T07:00:08;96063.77;;;15.70;59.17
61814;BME280;57055;-35.296;149.168;2023-03-21T07:02:37;96084.05;;;15.69;58.91
61814;BME280;57055;-35.296;149.168;2023-03-21T07:05:07;96089.62;;;15.67;59.31
61814;BME280;57055;-35.296;149.168;2023-03-21T07:07:36;96069.54;;;15.60;59.89
61814;BME280;57055;-35.296;149.168;2023-03-21T07:10:05;96038.51;;;15.49;60.25
61814;BME280;57055;-35.296;149.168;2023-03-21T07:12:35;96027.73;;;15.56;60.94
61814;BME280;57055;-35.296;149.168;2023-03-21T07:15:07;96030.95;;;15.40;60.64
61814;BME280;57055;-35.296;149.168;2023-03-21T07:17:36;96046.56;;;15.44;61.85
61814;BME280;57055;-35.296;149.168;2023-03-21T07:20:05;96062.22;;;15.44;59.76
61814;BME280;57055;-35.296;149.168;2023-03-21T07:22:34;96063.20;;;15.43;59.73
61814;BME280;57055;-35.296;149.168;2023-03-21T07:25:04;96067.86;;;15.64;60.64
61814;BME280;57055;-35.296;149.168;2023-03-21T07:27:33;96086.48;;;15.42;60.11
61814;BME280;57055;-35.296;149.168;2023-03-21T07:30:02;96079.63;;;15.40;60.22
61814;BME280;57055;-35.296;149.168;2023-03-21T07:32:33;96079.11;;;15.34;61.05
61814;BME280;57055;-35.296;149.168;2023-03-21T07:35:02;96069.20;;;15.31;61.47
61814;BME280;57055;-35.296;149.168;2023-03-21T07:37:30;96068.81;;;15.29;60.73
61814;BME280;57055;-35.296;149.168;2023-03-21T07:39:59;96066.29;;;15.27;60.95
61814;BME280;57055;-35.296;149.168;2023-03-21T07:42:28;96057.65;;;15.25;60.90
61814;BME280;57055;-35.296;149.168;2023-03-21T07:44:56;96066.09;;;15.26;61.52
61814;BME280;57055;-35.296;149.168;2023-03-21T07:47:25;96063.98;;;15.26;61.10
61814;BME280;57055;-35.296;149.168;2023-03-21T07:49:54;96077.09;;;15.26;61.78
61814;BME280;57055;-35.296;149.168;2023-03-21T07:52:22;96092.10;;;15.33;61.37
61814;BME280;57055;-35.296;149.168;2023-03-21T07:54:51;96097.87;;;15.36;62.02
61814;BME280;57055;-35.296;149.168;2023-03-21T07:57:20;96108.28;;;15.38;62.17
61814;BME280;57055;-35.296;149.168;2023-03-21T07:59:49;96134.30;;;15.52;62.33
61814;BME280;57055;-35.296;149.168;2023-03-21T08:02:18;96144.48;;;15.53;62.61
61814;BME280;57055;-35.296;149.168;2023-03-21T08:04:48;96135.60;;;15.48;63.20
61814;BME280;57055;-35.296;149.168;2023-03-21T08:07:17;96135.05;;;15.67;63.29
61814;BME280;57055;-35.296;149.168;2023-03-21T08:09:46;96132.56;;;15.31;63.59
61814;BME280;57055;-35.296;149.168;2023-03-21T08:12:14;96126.82;;;15.52;63.86
61814;BME280;57055;-35.296;149.168;2023-03-21T08:14:43;96128.14;;;15.34;63.88
61814;BME280;57055;-35.296;149.168;2023-03-21T08:17:11;96138.39;;;15.42;64.36
61814;BME280;57055;-35.296;149.168;2023-03-21T08:19:40;96124.73;;;15.45;64.80
61814;BME280;57055;-35.296;149.168;2023-03-21T08:22:09;96103.94;;;15.32;64.97
61814;BME280;57055;-35.296;149.168;2023-03-21T08:24:37;96091.17;;;15.18;64.93
61814;BME280;57055;-35.296;149.168;2023-03-21T08:27:06;96095.31;;;15.21;65.62
61814;BME280;57055;-35.296;149.168;2023-03-21T08:29:37;96101.66;;;15.49;65.70
61814;BME280;57055;-35.296;149.168;2023-03-21T08:32:07;96108.56;;;15.70;65.43
61814;BME280;57055;-35.296;149.168;2023-03-21T08:34:36;96088.52;;;15.09;64.99
61814;BME280;57055;-35.296;149.168;2023-03-21T08:37:05;96077.00;;;15.44;66.07
61814;BME280;57055;-35.296;149.168;2023-03-21T08:39:34;96072.00;;;15.12;66.04
61814;BME280;57055;-35.296;149.168;2023-03-21T08:42:03;96110.34;;;15.13;65.47
61814;BME280;57055;-35.296;149.168;2023-03-21T08:44:32;96156.24;;;15.13;65.45
61814;BME280;57055;-35.296;149.168;2023-03-21T08:47:01;96155.80;;;15.05;66.34
61814;BME280;57055;-35.296;149.168;2023-03-21T08:49:29;96145.82;;;15.26;66.31
61814;BME280;57055;-35.296;149.168;2023-03-21T08:51:58;96154.11;;;15.18;66.46
61814;BME280;57055;-35.296;149.168;2023-03-21T08:54:27;96156.26;;;14.84;66.47
61814;BME280;57055;-35.296;149.168;2023-03-21T08:56:55;96153.26;;;15.01;66.44
61814;BME280;57055;-35.296;149.168;2023-03-21T08:59:25;96152.44;;;15.25;66.40
61814;BME280;57055;-35.296;149.168;2023-03-21T09:01:53;96131.34;;;14.95;66.79
61814;BME280;57055;-35.296;149.168;2023-03-21T09:04:22;96085.74;;;15.02;66.82
61814;BME280;57055;-35.296;149.168;2023-03-21T09:06:51;96060.82;;;15.00;67.22
61814;BME280;57055;-35.296;149.168;2023-03-21T09:09:20;96051.33;;;14.79;68.09
61814;BME280;57055;-35.296;149.168;2023-03-21T09:11:49;96028.09;;;15.12;67.87
61814;BME280;57055;-35.296;149.168;2023-03-21T09:14:17;96013.17;;;15.04;68.08
61814;BME280;57055;-35.296;149.168;2023-03-21T09:16:46;96006.32;;;14.70;66.87
61814;BME280;57055;-35.296;149.168;2023-03-21T09:19:16;95988.70;;;14.93;66.55
61814;BME280;57055;-35.296;149.168;2023-03-21T09:21:45;95970.92;;;14.77;66.89
61814;BME280;57055;-35.296;149.168;2023-03-21T09:24:14;95979.48;;;14.84;66.30
61814;BME280;57055;-35.296;149.168;2023-03-21T09:26:43;96003.37;;;14.41;66.05
61814;BME280;57055;-35.296;149.168;2023-03-21T09:29:12;96041.70;;;14.70;66.03
61814;BME280;57055;-35.296;149.168;2023-03-21T09:31:42;96063.11;;;14.92;66.46
61814;BME280;57055;-35.296;149.168;2023-03-21T09:34:11;96079.46;;;15.00;66.99
61814;BME280;57055;-35.296;149.168;2023-03-21T09:36:40;96090.94;;;14.99;67.29
61814;BME280;57055;-35.296;149.168;2023-03-21T09:39:09;96108.61;;;14.93;67.20
61814;BME280;57055;-35.296;149.168;2023-03-21T09:41:54;96110.34;;;14.92;67.32
61814;BME280;57055;-35.296;149.168;2023-03-21T09:44:33;96115.43;;;14.65;67.85
61814;BME280;57055;-35.296;149.168;2023-03-21T09:47:12;96118.34;;;14.97;67.53
61814;BME280;57055;-35.296;149.168;2023-03-21T09:49:44;96125.61;;;15.02;67.76
61814;BME280;57055;-35.296;149.168;2023-03-21T09:52:19;96129.52;;;14.71;67.68
61814;BME280;57055;-35.296;149.168;2023-03-21T09:54:50;96127.17;;;14.73;67.36
61814;BME280;57055;-35.296;149.168;2023-03-21T09:57:29;96130.43;;;14.97;67.15
61814;BME280;57055;-35.296;149.168;2023-03-21T10:00:03;96129.76;;;14.98;68.15
61814;BME280;57055;-35.296;149.168;2023-03-21T10:02:36;96121.78;;;14.77;67.65
61814;BME280;57055;-35.296;149.168;2023-03-21T10:05:15;96120.95;;;14.82;67.79
61814;BME280;57055;-35.296;149.168;2023-03-21T10:07:48;96121.81;;;14.78;67.82
61814;BME280;57055;-35.296;149.168;2023-03-21T10:10:23;96119.51;;;14.80;68.15
61814;BME280;57055;-35.296;149.168;2023-03-21T10:12:54;96128.70;;;14.80;67.28
61814;BME280;57055;-35.296;149.168;2023-03-21T10:15:25;96133.64;;;14.75;68.27
61814;BME280;57055;-35.296;149.168;2023-03-21T10:17:58;96138.43;;;14.73;68.63
61814;BME280;57055;-35.296;149.168;2023-03-21T10:20:30;96133.31;;;14.76;68.48
61814;BME280;57055;-35.296;149.168;2023-03-21T10:23:03;96130.79;;;14.75;68.84
61814;BME280;57055;-35.296;149.168;2023-03-21T10:25:34;96126.21;;;14.43;68.76
61814;BME280;57055;-35.296;149.168;2023-03-21T10:28:06;96130.36;;;14.68;68.69
61814;BME280;57055;-35.296;149.168;2023-03-21T10:30:40;96131.42;;;15.00;68.92
61814;BME280;57055;-35.296;149.168;2023-03-21T10:33:14;96129.66;;;14.57;68.81
61814;BME280;57055;-35.296;149.168;2023-03-21T10:35:48;96124.26;;;14.59;68.76
61814;BME280;57055;-35.296;149.168;2023-03-21T10:38:19;96115.55;;;14.51;68.70
61814;BME280;57055;-35.296;149.168;2023-03-21T10:40:51;96111.81;;;14.71;68.17
61814;BME280;57055;-35.296;149.168;2023-03-21T10:43:32;96107.48;;;14.64;68.05
61814;BME280;57055;-35.296;149.168;2023-03-21T10:46:08;96097.38;;;14.61;68.47
61814;BME280;57055;-35.296;149.168;2023-03-21T10:48:40;96090.10;;;14.82;68.32
61814;BME280;57055;-35.296;149.168;2023-03-21T10:51:13;96085.47;;;14.78;68.27
61814;BME280;57055;-35.296;149.168;2023-03-21T10:53:47;96082.26;;;14.81;67.61
61814;BME280;57055;-35.296;149.168;2023-03-21T10:56:18;96075.37;;;14.62;68.14
61814;BME280;57055;-35.296;149.168;2023-03-21T10:58:51;96080.41;;;14.79;67.98
61814;BME280;57055;-35.296;149.168;2023-03-21T11:01:27;96081.15;;;14.63;68.48
61814;BME280;57055;-35.296;149.168;2023-03-21T11:03:59;96065.99;;;14.62;68.09
61814;BME280;57055;-35.296;149.168;2023-03-21T11:06:30;96059.18;;;14.84;67.94
61814;BME280;57055;-35.296;149.168;2023-03-21T11:09:05;96061.94;;;14.79;68.17
61814;BME280;57055;-35.296;149.168;2023-03-21T11:11:38;96063.56;;;14.57;67.37
61814;BME280;57055;-35.296;149.168;2023-03-21T11:14:24;96054.78;;;14.54;66.98
61814;BME280;57055;-35.296;149.168;2023-03-21T11:16:53;96051.08;;;14.68;67.18
61814;BME280;57055;-35.296;149.168;2023-03-21T11:19:30;96058.99;;;14.52;67.61
61814;BME280;57055;-35.296;149.168;2023-03-21T11:22:05;96067.68;;;14.61;68.26
61814;BME280;57055;-35.296;149.168;2023-03-21T11:24:36;96066.58;;;14.50;67.18
61814;BME280;57055;-35.296;149.168;2023-03-21T11:27:07;96060.56;;;14.51;68.00
61814;BME280;57055;-35.296;149.168;2023-03-21T11:29:38;96069.50;;;14.39;67.72
61814;BME280;57055;-35.296;149.168;2023-03-21T11:32:15;96064.83;;;14.18;68.62
61814;BME280;57055;-35.296;149.168;2023-03-21T11:34:50;96058.63;;;14.43;68.10
61814;BME280;57055;-35.296;149.168;2023-03-21T11:37:24;96056.80;;;14.46;68.10
61814;BME280;57055;-35.296;149.168;2023-03-21T11:40:12;96053.54;;;14.53;68.01
61814;BME280;57055;-35.296;149.168;2023-03-21T11:42:47;96054.00;;;14.48;67.73
61814;BME280;57055;-35.296;149.168;2023-03-21T11:45:19;96059.71;;;14.44;67.83
61814;BME280;57055;-35.296;149.168;2023-03-21T11:47:50;96061.55;;;14.64;68.20
61814;BME280;57055;-35.296;149.168;2023-03-21T11:50:26;96064.75;;;14.31;67.70
61814;BME280;57055;-35.296;149.168;2023-03-21T11:53:11;96058.30;;;14.30;67.75
61814;BME280;57055;-35.296;149.168;2023-03-21T11:55:54;96048.90;;;14.34;67.78
61814;BME280;57055;-35.296;149.168;2023-03-21T11:58:34;96049.05;;;14.34;67.66
61814;BME280;57055;-35.296;149.168;2023-03-21T12:01:12;96053.12;;;14.29;68.07
61814;BME280;57055;-35.296;149.168;2023-03-21T12:03:59;96048.27;;;14.29;67.95
61814;BME280;57055;-35.296;149.168;2023-03-21T12:06:35;96040.86;;;14.21;68.08
61814;BME280;57055;-35.296;149.168;2023-03-21T12:09:15;96034.40;;;14.63;67.84
61814;BME280;57055;-35.296;149.168;2023-03-21T12:12:01;96022.42;;;14.42;67.96
61814;BME280;57055;-35.296;149.168;2023-03-21T12:14:40;96019.73;;;14.34;67.79
61814;BME280;57055;-35.296;149.168;2023-03-21T12:17:20;96019.51;;;14.05;68.29
61814;BME280;57055;-35.296;149.168;2023-03-21T12:20:05;96019.35;;;13.98;68.22
61814;BME280;57055;-35.296;149.168;2023-03-21T12:22:49;96021.00;;;14.02;68.24
61814;BME280;57055;-35.296;149.168;2023-03-21T12:25:27;96018.15;;;14.38;68.43
61814;BME280;57055;-35.296;149.168;2023-03-21T12:28:07;96013.18;;;13.91;67.81
61814;BME280;57055;-35.296;149.168;2023-03-21T12:30:48;96006.23;;;13.91;68.21
61814;BME280;57055;-35.296;149.168;2023-03-21T12:33:34;96009.40;;;14.15;68.54
61814;BME280;57055;-35.296;149.168;2023-03-21T12:36:15;95999.35;;;13.96;68.25
61814;BME280;57055;-35.296;149.168;2023-03-21T12:38:56;95996.31;;;13.97;68.10
61814;BME280;57055;-35.296;149.168;2023-03-21T12:41:35;95996.96;;;14.37;68.02
61814;BME280;57055;-35.296;149.168;2023-03-21T12:44:11;95996.89;;;13.90;68.06
61814;BME280;57055;-35.296;149.168;2023-03-21T12:46:46;95994.04;;;14.20;67.82
61814;BME280;57055;-35.296;149.168;2023-03-21T12:49:22;95994.03;;;14.10;67.02
61814;BME280;57055;-35.296;149.168;2023-03-21T12:51:58;95987.45;;;13.83;67.38
61814;BME280;57055;-35.296;149.168;2023-03-21T12:54:30;95984.52;;;13.70;67.32